NKS387 KFLL-KTPA
Flight info
| Callsign | NKS387 |
|---|---|
| Flight time | 0h 39m |
| Altitude | 18000 |
| Route | BNICE2 COREA BLFRG3 |
| Aircraft | A320/M-SDE3FGHIRWY/LB1 |
Departure
| Time | 2026-05-05 04:07 |
|---|---|
| Airport | Fort Lauderdale Hollywood International Airport (KFLL) |
Arrival
| Time | 2026-05-05 04:47 |
|---|---|
| Airport | Tampa International Airport (KTPA) |
| Time | Latitude | Longitude | Altitude | Speed | Heading |
|---|---|---|---|---|---|
| 2026-05-05 03:49 | 26.07388 | -80.14699 | 16 ft | 0 kts | 191° |
| 2026-05-05 03:58 | 26.07400 | -80.14696 | 17 ft | 4 kts | 191° |
| 2026-05-05 03:59 | 26.07422 | -80.14691 | 16 ft | 3 kts | 191° |
| 2026-05-05 03:59 | 26.07439 | -80.14680 | 16 ft | 4 kts | 256° |
| 2026-05-05 03:59 | 26.07442 | -80.14652 | 16 ft | 4 kts | 276° |
| 2026-05-05 03:59 | 26.07435 | -80.14624 | 18 ft | 4 kts | 297° |
| 2026-05-05 04:00 | 26.07424 | -80.14602 | 16 ft | 3 kts | 297° |
| 2026-05-05 04:00 | 26.07417 | -80.14585 | 16 ft | 0 kts | 297° |
| 2026-05-05 04:02 | 26.07422 | -80.14596 | 16 ft | 7 kts | 297° |
| 2026-05-05 04:02 | 26.07463 | -80.14683 | 16 ft | 15 kts | 297° |
| 2026-05-05 04:02 | 26.07533 | -80.14783 | 16 ft | 18 kts | 311° |
| 2026-05-05 04:02 | 26.07562 | -80.14920 | 16 ft | 20 kts | 273° |
| 2026-05-05 04:03 | 26.07563 | -80.15084 | 16 ft | 23 kts | 270° |
| 2026-05-05 04:03 | 26.07564 | -80.15269 | 16 ft | 25 kts | 270° |
| 2026-05-05 04:03 | 26.07565 | -80.15474 | 16 ft | 28 kts | 270° |
| 2026-05-05 04:03 | 26.07566 | -80.15696 | 16 ft | 27 kts | 270° |
| 2026-05-05 04:04 | 26.07567 | -80.15911 | 16 ft | 29 kts | 270° |
| 2026-05-05 04:04 | 26.07568 | -80.16104 | 17 ft | 26 kts | 270° |
| 2026-05-05 04:04 | 26.07570 | -80.16313 | 17 ft | 28 kts | 270° |
| 2026-05-05 04:04 | 26.07571 | -80.16537 | 17 ft | 29 kts | 271° |
| 2026-05-05 04:05 | 26.07575 | -80.16637 | 16 ft | 0 kts | 298° |
| 2026-05-05 04:05 | 26.07579 | -80.16637 | 19 ft | 1 kts | 343° |
| 2026-05-05 04:05 | 26.07589 | -80.16639 | 18 ft | 2 kts | 346° |
| 2026-05-05 04:05 | 26.07608 | -80.16644 | 17 ft | 4 kts | 346° |
| 2026-05-05 04:06 | 26.07653 | -80.16643 | 18 ft | 7 kts | 4° |
| 2026-05-05 04:06 | 26.07695 | -80.16608 | 18 ft | 9 kts | 72° |
| 2026-05-05 04:06 | 26.07695 | -80.16527 | 19 ft | 13 kts | 90° |
| 2026-05-05 04:06 | 26.07694 | -80.16217 | 20 ft | 76 kts | 90° |
| 2026-05-05 04:07 | 26.07688 | -80.15397 | 16 ft | 133 kts | 90° |
| 2026-05-05 04:07 | 26.07674 | -80.14203 | 144 ft | 167 kts | 90° |
| 2026-05-05 04:07 | 26.07663 | -80.12954 | 872 ft | 162 kts | 88° |
| 2026-05-05 04:07 | 26.07703 | -80.11685 | 1526 ft | 166 kts | 87° |
| 2026-05-05 04:08 | 26.07878 | -80.10330 | 1837 ft | 191 kts | 72° |
| 2026-05-05 04:08 | 26.08341 | -80.08846 | 2226 ft | 215 kts | 71° |
| 2026-05-05 04:08 | 26.09140 | -80.07335 | 2686 ft | 244 kts | 44° |
| 2026-05-05 04:08 | 26.10687 | -80.06418 | 3410 ft | 260 kts | 21° |
| 2026-05-05 04:09 | 26.12410 | -80.05723 | 4318 ft | 267 kts | 20° |
| 2026-05-05 04:09 | 26.14186 | -80.05049 | 5210 ft | 273 kts | 13° |
| 2026-05-05 04:09 | 26.16089 | -80.04921 | 6067 ft | 278 kts | 350° |
| 2026-05-05 04:09 | 26.17327 | -80.05282 | 6669 ft | 278 kts | 339° |
| 2026-05-05 04:10 | 26.19155 | -80.06006 | 7560 ft | 281 kts | 337° |
| 2026-05-05 04:10 | 26.20929 | -80.06933 | 8357 ft | 283 kts | 322° |
| 2026-05-05 04:10 | 26.22398 | -80.08377 | 9236 ft | 282 kts | 307° |
| 2026-05-05 04:10 | 26.23443 | -80.10220 | 10074 ft | 282 kts | 291° |
| 2026-05-05 04:11 | 26.24455 | -80.13031 | 10569 ft | 310 kts | 289° |
| 2026-05-05 04:11 | 26.24993 | -80.14562 | 10909 ft | 318 kts | 289° |
| 2026-05-05 04:11 | 26.25606 | -80.16934 | 11599 ft | 321 kts | 278° |
| 2026-05-05 04:11 | 26.25951 | -80.19392 | 12357 ft | 323 kts | 277° |
| 2026-05-05 04:12 | 26.26302 | -80.21880 | 13104 ft | 326 kts | 278° |
| 2026-05-05 04:12 | 26.26658 | -80.24386 | 13819 ft | 329 kts | 278° |
| 2026-05-05 04:12 | 26.27019 | -80.26914 | 14455 ft | 331 kts | 278° |
| 2026-05-05 04:12 | 26.27381 | -80.29453 | 15120 ft | 332 kts | 278° |
| 2026-05-05 04:13 | 26.27745 | -80.32002 | 15789 ft | 334 kts | 278° |
| 2026-05-05 04:13 | 26.28109 | -80.34551 | 16458 ft | 335 kts | 278° |
| 2026-05-05 04:13 | 26.28476 | -80.37121 | 17135 ft | 336 kts | 278° |
| 2026-05-05 04:13 | 26.28842 | -80.39696 | 17755 ft | 338 kts | 278° |
| 2026-05-05 04:14 | 26.29208 | -80.42277 | 17954 ft | 337 kts | 278° |
| 2026-05-05 04:14 | 26.29572 | -80.44833 | 17997 ft | 331 kts | 278° |
| 2026-05-05 04:14 | 26.29930 | -80.47361 | 18001 ft | 329 kts | 278° |
| 2026-05-05 04:14 | 26.30284 | -80.49880 | 18000 ft | 329 kts | 278° |
| 2026-05-05 04:15 | 26.30639 | -80.52398 | 17999 ft | 329 kts | 278° |
| 2026-05-05 04:15 | 26.30993 | -80.54914 | 17996 ft | 329 kts | 278° |
| 2026-05-05 04:15 | 26.31347 | -80.57431 | 17999 ft | 329 kts | 278° |
| 2026-05-05 04:15 | 26.31700 | -80.59948 | 17999 ft | 329 kts | 278° |
| 2026-05-05 04:16 | 26.32051 | -80.62466 | 17999 ft | 329 kts | 278° |
| 2026-05-05 04:16 | 26.32400 | -80.64984 | 17999 ft | 329 kts | 278° |
| 2026-05-05 04:16 | 26.32751 | -80.67501 | 18001 ft | 329 kts | 278° |
| 2026-05-05 04:16 | 26.33103 | -80.70021 | 18004 ft | 329 kts | 278° |
| 2026-05-05 04:17 | 26.33458 | -80.72543 | 18006 ft | 329 kts | 278° |
| 2026-05-05 04:17 | 26.33813 | -80.75064 | 18008 ft | 329 kts | 278° |
| 2026-05-05 04:17 | 26.34165 | -80.77588 | 18007 ft | 329 kts | 278° |
| 2026-05-05 04:17 | 26.34516 | -80.80111 | 18009 ft | 329 kts | 278° |
| 2026-05-05 04:18 | 26.34865 | -80.82633 | 18010 ft | 329 kts | 278° |
| 2026-05-05 04:18 | 26.35214 | -80.85154 | 18011 ft | 329 kts | 278° |
| 2026-05-05 04:18 | 26.35557 | -80.87643 | 18011 ft | 329 kts | 278° |
| 2026-05-05 04:18 | 26.35952 | -80.90157 | 18010 ft | 330 kts | 283° |
| 2026-05-05 04:19 | 26.36787 | -80.92542 | 18008 ft | 333 kts | 296° |
| 2026-05-05 04:19 | 26.38134 | -80.94654 | 18003 ft | 338 kts | 309° |
| 2026-05-05 04:19 | 26.39843 | -80.96467 | 18000 ft | 340 kts | 313° |
| 2026-05-05 04:19 | 26.41576 | -80.98265 | 18000 ft | 341 kts | 313° |
| 2026-05-05 04:20 | 26.43306 | -81.00076 | 18004 ft | 341 kts | 313° |
| 2026-05-05 04:20 | 26.45032 | -81.01890 | 18006 ft | 341 kts | 313° |
| 2026-05-05 04:20 | 26.46759 | -81.03707 | 18009 ft | 341 kts | 313° |
| 2026-05-05 04:20 | 26.48489 | -81.05527 | 18011 ft | 342 kts | 313° |
| 2026-05-05 04:21 | 26.50217 | -81.07344 | 18014 ft | 342 kts | 313° |
| 2026-05-05 04:21 | 26.51947 | -81.09166 | 18016 ft | 342 kts | 312° |
| 2026-05-05 04:21 | 26.53676 | -81.10989 | 18018 ft | 342 kts | 313° |
| 2026-05-05 04:21 | 26.55407 | -81.12813 | 18019 ft | 342 kts | 313° |
| 2026-05-05 04:22 | 26.57137 | -81.14635 | 18020 ft | 342 kts | 313° |
| 2026-05-05 04:22 | 26.58867 | -81.16459 | 18021 ft | 342 kts | 312° |
| 2026-05-05 04:22 | 26.60594 | -81.18283 | 18038 ft | 342 kts | 313° |
| 2026-05-05 04:22 | 26.62322 | -81.20111 | 18033 ft | 342 kts | 313° |
| 2026-05-05 04:23 | 26.63988 | -81.21998 | 18026 ft | 339 kts | 306° |
| 2026-05-05 04:23 | 26.65468 | -81.24053 | 18023 ft | 339 kts | 305° |
| 2026-05-05 04:23 | 26.66948 | -81.26111 | 18021 ft | 340 kts | 305° |
| 2026-05-05 04:23 | 26.68428 | -81.28168 | 18020 ft | 340 kts | 305° |
| 2026-05-05 04:24 | 26.69910 | -81.30228 | 18017 ft | 340 kts | 306° |
| 2026-05-05 04:24 | 26.71397 | -81.32290 | 18016 ft | 340 kts | 306° |
| 2026-05-05 04:24 | 26.72884 | -81.34352 | 18019 ft | 341 kts | 306° |
| 2026-05-05 04:25 | 26.75853 | -81.38486 | 18019 ft | 341 kts | 306° |
| 2026-05-05 04:25 | 26.77338 | -81.40554 | 18020 ft | 341 kts | 306° |
| 2026-05-05 04:25 | 26.78823 | -81.42623 | 18021 ft | 341 kts | 306° |
| 2026-05-05 04:25 | 26.80307 | -81.44696 | 18021 ft | 341 kts | 306° |
| 2026-05-05 04:26 | 26.81790 | -81.46769 | 18022 ft | 341 kts | 306° |
| 2026-05-05 04:26 | 26.83276 | -81.48841 | 18023 ft | 341 kts | 306° |
| 2026-05-05 04:26 | 26.84761 | -81.50911 | 18024 ft | 341 kts | 306° |
| 2026-05-05 04:26 | 26.86250 | -81.52982 | 18030 ft | 341 kts | 306° |
| 2026-05-05 04:27 | 26.87739 | -81.55055 | 18030 ft | 341 kts | 306° |
| 2026-05-05 04:27 | 26.89225 | -81.57129 | 18031 ft | 341 kts | 306° |
| 2026-05-05 04:27 | 26.90711 | -81.59202 | 18031 ft | 341 kts | 306° |
| 2026-05-05 04:27 | 26.92195 | -81.61278 | 18033 ft | 341 kts | 306° |
| 2026-05-05 04:28 | 26.93676 | -81.63353 | 18046 ft | 341 kts | 306° |
| 2026-05-05 04:28 | 26.95157 | -81.65433 | 18044 ft | 341 kts | 306° |
| 2026-05-05 04:28 | 26.96638 | -81.67511 | 18044 ft | 341 kts | 306° |
| 2026-05-05 04:28 | 26.98121 | -81.69591 | 18044 ft | 341 kts | 306° |
| 2026-05-05 04:29 | 26.99603 | -81.71669 | 18045 ft | 341 kts | 306° |
| 2026-05-05 04:29 | 27.01069 | -81.73719 | 18045 ft | 341 kts | 306° |
| 2026-05-05 04:29 | 27.02574 | -81.75824 | 18046 ft | 341 kts | 306° |
| 2026-05-05 04:29 | 27.04059 | -81.77902 | 18047 ft | 341 kts | 306° |
| 2026-05-05 04:30 | 27.05541 | -81.79985 | 18045 ft | 341 kts | 306° |
| 2026-05-05 04:30 | 27.07021 | -81.82066 | 18047 ft | 341 kts | 306° |
| 2026-05-05 04:30 | 27.08582 | -81.84056 | 17911 ft | 336 kts | 314° |
| 2026-05-05 04:30 | 27.10359 | -81.85651 | 17654 ft | 319 kts | 320° |
| 2026-05-05 04:31 | 27.12129 | -81.87117 | 17399 ft | 315 kts | 320° |
| 2026-05-05 04:31 | 27.13880 | -81.88579 | 17149 ft | 313 kts | 320° |
| 2026-05-05 04:31 | 27.15616 | -81.90039 | 16895 ft | 312 kts | 320° |
| 2026-05-05 04:31 | 27.17321 | -81.91482 | 16652 ft | 311 kts | 320° |
| 2026-05-05 04:32 | 27.19067 | -81.92962 | 16400 ft | 310 kts | 320° |
| 2026-05-05 04:32 | 27.20787 | -81.94421 | 16157 ft | 310 kts | 320° |
| 2026-05-05 04:32 | 27.22500 | -81.95873 | 15912 ft | 306 kts | 320° |
| 2026-05-05 04:32 | 27.24191 | -81.97302 | 15570 ft | 304 kts | 320° |
| 2026-05-05 04:33 | 27.25882 | -81.98731 | 15195 ft | 304 kts | 320° |
| 2026-05-05 04:33 | 27.27573 | -82.00162 | 14799 ft | 305 kts | 320° |
| 2026-05-05 04:33 | 27.29266 | -82.01598 | 14407 ft | 305 kts | 321° |
| 2026-05-05 04:33 | 27.30962 | -82.03038 | 14017 ft | 306 kts | 321° |
| 2026-05-05 04:34 | 27.32661 | -82.04483 | 13593 ft | 306 kts | 321° |
| 2026-05-05 04:34 | 27.34359 | -82.05929 | 13195 ft | 306 kts | 321° |
| 2026-05-05 04:34 | 27.36051 | -82.07370 | 12807 ft | 305 kts | 321° |
| 2026-05-05 04:34 | 27.37710 | -82.08796 | 12422 ft | 304 kts | 320° |
| 2026-05-05 04:35 | 27.39374 | -82.10303 | 12041 ft | 303 kts | 319° |
| 2026-05-05 04:35 | 27.40967 | -82.11791 | 11667 ft | 302 kts | 318° |
| 2026-05-05 04:35 | 27.42576 | -82.13313 | 11284 ft | 301 kts | 318° |
| 2026-05-05 04:35 | 27.44178 | -82.14832 | 10898 ft | 301 kts | 317° |
| 2026-05-05 04:36 | 27.45727 | -82.16413 | 10517 ft | 300 kts | 315° |
| 2026-05-05 04:36 | 27.47219 | -82.18037 | 10279 ft | 295 kts | 314° |
| 2026-05-05 04:36 | 27.48656 | -82.19643 | 9953 ft | 289 kts | 313° |
| 2026-05-05 04:36 | 27.50084 | -82.21242 | 9413 ft | 290 kts | 313° |
| 2026-05-05 04:37 | 27.51511 | -82.22833 | 9075 ft | 288 kts | 314° |
| 2026-05-05 04:37 | 27.52943 | -82.24422 | 8700 ft | 287 kts | 313° |
| 2026-05-05 04:37 | 27.54369 | -82.25996 | 8339 ft | 287 kts | 314° |
| 2026-05-05 04:37 | 27.55793 | -82.27559 | 8013 ft | 285 kts | 314° |
| 2026-05-05 04:38 | 27.57215 | -82.29117 | 7669 ft | 284 kts | 314° |
| 2026-05-05 04:38 | 27.58633 | -82.30670 | 7310 ft | 284 kts | 314° |
| 2026-05-05 04:38 | 27.60047 | -82.32216 | 6959 ft | 283 kts | 314° |
| 2026-05-05 04:38 | 27.61457 | -82.33759 | 6609 ft | 283 kts | 313° |
| 2026-05-05 04:39 | 27.62860 | -82.35296 | 6231 ft | 280 kts | 313° |
| 2026-05-05 04:39 | 27.64241 | -82.36814 | 5825 ft | 274 kts | 313° |
| 2026-05-05 04:39 | 27.65591 | -82.38301 | 5479 ft | 268 kts | 314° |
| 2026-05-05 04:39 | 27.66912 | -82.39756 | 5159 ft | 264 kts | 314° |
| 2026-05-05 04:40 | 27.68113 | -82.41318 | 4821 ft | 263 kts | 302° |
| 2026-05-05 04:40 | 27.68905 | -82.43166 | 4484 ft | 262 kts | 286° |
| 2026-05-05 04:40 | 27.69233 | -82.45178 | 4142 ft | 261 kts | 270° |
| 2026-05-05 04:40 | 27.69338 | -82.47219 | 3807 ft | 261 kts | 282° |
| 2026-05-05 04:41 | 27.70249 | -82.48953 | 3523 ft | 260 kts | 320° |
| 2026-05-05 04:41 | 27.71799 | -82.49940 | 3355 ft | 251 kts | 340° |
| 2026-05-05 04:41 | 27.73415 | -82.50548 | 3272 ft | 239 kts | 345° |
| 2026-05-05 04:41 | 27.74970 | -82.51081 | 3181 ft | 228 kts | 345° |
| 2026-05-05 04:42 | 27.76446 | -82.51638 | 3082 ft | 219 kts | 342° |
| 2026-05-05 04:42 | 27.77848 | -82.52229 | 2997 ft | 213 kts | 341° |
| 2026-05-05 04:42 | 27.79215 | -82.52849 | 2898 ft | 212 kts | 340° |
| 2026-05-05 04:42 | 27.80559 | -82.53491 | 2836 ft | 204 kts | 339° |
| 2026-05-05 04:43 | 27.81811 | -82.54115 | 2730 ft | 191 kts | 339° |
| 2026-05-05 04:43 | 27.82980 | -82.54599 | 2598 ft | 167 kts | 354° |
| 2026-05-05 04:43 | 27.84079 | -82.54649 | 2389 ft | 153 kts | 9° |
| 2026-05-05 04:43 | 27.85134 | -82.54615 | 2191 ft | 151 kts | 10° |
| 2026-05-05 04:44 | 27.86178 | -82.54580 | 1994 ft | 149 kts | 10° |
| 2026-05-05 04:44 | 27.87227 | -82.54544 | 1795 ft | 152 kts | 10° |
| 2026-05-05 04:44 | 27.88283 | -82.54509 | 1594 ft | 151 kts | 10° |
| 2026-05-05 04:44 | 27.89332 | -82.54473 | 1394 ft | 150 kts | 9° |
| 2026-05-05 04:45 | 27.90374 | -82.54438 | 1199 ft | 149 kts | 9° |
| 2026-05-05 04:45 | 27.91401 | -82.54404 | 1022 ft | 146 kts | 8° |
| 2026-05-05 04:45 | 27.92410 | -82.54371 | 833 ft | 144 kts | 6° |
| 2026-05-05 04:45 | 27.93428 | -82.54352 | 620 ft | 147 kts | 5° |
| 2026-05-05 04:46 | 27.94434 | -82.54320 | 412 ft | 144 kts | 6° |
| 2026-05-05 04:46 | 27.95432 | -82.54273 | 246 ft | 143 kts | 6° |
| 2026-05-05 04:46 | 27.96435 | -82.54236 | 72 ft | 145 kts | 5° |
| 2026-05-05 04:46 | 27.97340 | -82.54202 | 50 ft | 108 kts | 1° |
| 2026-05-05 04:47 | 27.97923 | -82.54182 | 48 ft | 59 kts | 1° |
| 2026-05-05 04:47 | 27.98162 | -82.54175 | 49 ft | 22 kts | 4° |
| 2026-05-05 04:47 | 27.98248 | -82.54136 | 50 ft | 13 kts | 31° |
| 2026-05-05 04:47 | 27.98324 | -82.54076 | 47 ft | 12 kts | 51° |
| 2026-05-05 04:48 | 27.98328 | -82.53976 | 46 ft | 15 kts | 128° |
| 2026-05-05 04:48 | 27.98222 | -82.53965 | 47 ft | 17 kts | 183° |
| 2026-05-05 04:48 | 27.98094 | -82.53970 | 46 ft | 20 kts | 180° |
| 2026-05-05 04:48 | 27.97945 | -82.53973 | 46 ft | 23 kts | 181° |
| 2026-05-05 04:49 | 27.97773 | -82.53976 | 46 ft | 26 kts | 180° |
| 2026-05-05 04:49 | 27.97617 | -82.53982 | 47 ft | 21 kts | 182° |
| 2026-05-05 04:49 | 27.97521 | -82.53954 | 43 ft | 15 kts | 124° |
| 2026-05-05 04:49 | 27.97465 | -82.53834 | 46 ft | 18 kts | 122° |
| 2026-05-05 04:50 | 27.97396 | -82.53718 | 52 ft | 17 kts | 124° |
| 2026-05-05 04:50 | 27.97339 | -82.53600 | 52 ft | 19 kts | 109° |
| 2026-05-05 04:50 | 27.97316 | -82.53428 | 45 ft | 25 kts | 91° |
| 2026-05-05 04:50 | 27.97310 | -82.53231 | 43 ft | 16 kts | 92° |
| 2026-05-05 04:51 | 27.97308 | -82.53122 | 43 ft | 13 kts | 81° |
| 2026-05-05 04:51 | 27.97383 | -82.53074 | 43 ft | 14 kts | 4° |
| 2026-05-05 04:51 | 27.97484 | -82.53071 | 43 ft | 15 kts | 2° |
| 2026-05-05 04:51 | 27.97593 | -82.53067 | 43 ft | 16 kts | 0° |
| 2026-05-05 04:52 | 27.97712 | -82.53063 | 43 ft | 18 kts | 1° |
| 2026-05-05 04:52 | 27.97827 | -82.53081 | 43 ft | 16 kts | 304° |
| 2026-05-05 04:52 | 27.97831 | -82.53162 | 43 ft | 1 kts | 243° |
| 2026-05-05 04:52 | 27.97822 | -82.53161 | 40 ft | 3 kts | 187° |
| 2026-05-05 04:53 | 27.97799 | -82.53171 | 43 ft | 4 kts | 207° |
| 2026-05-05 04:53 | 27.97775 | -82.53185 | 43 ft | 0 kts | 207° |
| 2026-05-05 04:53 | 27.97772 | -82.53187 | 43 ft | 0 kts | 207° |